sensor_id;sensor_type;location;lat;lon;timestamp;P1;durP1;ratioP1;P2;durP2;ratioP2
25107;SDS011;13090;53.422;7.670;2023-02-10T00:04:40;28.58;;;10.95;;
25107;SDS011;13090;53.422;7.670;2023-02-10T00:09:48;23.42;;;10.77;;
25107;SDS011;13090;53.422;7.670;2023-02-10T00:14:52;24.92;;;9.98;;
25107;SDS011;13090;53.422;7.670;2023-02-10T00:20:01;20.77;;;9.73;;
25107;SDS011;13090;53.422;7.670;2023-02-10T00:25:07;21.95;;;9.80;;
25107;SDS011;13090;53.422;7.670;2023-02-10T00:30:11;27.67;;;10.15;;
25107;SDS011;13090;53.422;7.670;2023-02-10T00:35:31;24.77;;;9.10;;
25107;SDS011;13090;53.422;7.670;2023-02-10T00:40:34;20.90;;;9.15;;
25107;SDS011;13090;53.422;7.670;2023-02-10T00:45:38;21.52;;;8.73;;
25107;SDS011;13090;53.422;7.670;2023-02-10T00:50:46;21.15;;;8.90;;
25107;SDS011;13090;53.422;7.670;2023-02-10T00:55:50;18.85;;;8.07;;
25107;SDS011;13090;53.422;7.670;2023-02-10T01:00:57;21.90;;;7.93;;
25107;SDS011;13090;53.422;7.670;2023-02-10T01:06:03;19.83;;;8.40;;
25107;SDS011;13090;53.422;7.670;2023-02-10T01:11:06;20.30;;;9.48;;
25107;SDS011;13090;53.422;7.670;2023-02-10T01:16:16;24.05;;;7.97;;
25107;SDS011;13090;53.422;7.670;2023-02-10T01:21:22;25.00;;;8.63;;
25107;SDS011;13090;53.422;7.670;2023-02-10T01:26:28;17.17;;;7.47;;
25107;SDS011;13090;53.422;7.670;2023-02-10T01:31:40;18.07;;;7.40;;
25107;SDS011;13090;53.422;7.670;2023-02-10T01:36:42;21.67;;;7.72;;
25107;SDS011;13090;53.422;7.670;2023-02-10T01:41:45;15.50;;;6.65;;
25107;SDS011;13090;53.422;7.670;2023-02-10T01:46:50;19.95;;;7.40;;
25107;SDS011;13090;53.422;7.670;2023-02-10T01:57:22;20.55;;;6.72;;
25107;SDS011;13090;53.422;7.670;2023-02-10T02:02:34;16.70;;;6.60;;
25107;SDS011;13090;53.422;7.670;2023-02-10T02:07:41;22.05;;;7.22;;
25107;SDS011;13090;53.422;7.670;2023-02-10T02:12:54;18.83;;;7.25;;
25107;SDS011;13090;53.422;7.670;2023-02-10T02:18:04;17.65;;;6.88;;
25107;SDS011;13090;53.422;7.670;2023-02-10T02:29:28;19.52;;;6.32;;
25107;SDS011;13090;53.422;7.670;2023-02-10T02:34:52;19.27;;;6.40;;
25107;SDS011;13090;53.422;7.670;2023-02-10T02:40:00;20.98;;;6.53;;
25107;SDS011;13090;53.422;7.670;2023-02-10T02:45:14;22.10;;;6.70;;
25107;SDS011;13090;53.422;7.670;2023-02-10T02:50:26;15.25;;;6.35;;
25107;SDS011;13090;53.422;7.670;2023-02-10T02:55:38;25.42;;;7.18;;
25107;SDS011;13090;53.422;7.670;2023-02-10T03:01:03;19.02;;;6.90;;
25107;SDS011;13090;53.422;7.670;2023-02-10T03:06:18;18.65;;;5.90;;
25107;SDS011;13090;53.422;7.670;2023-02-10T03:11:21;16.00;;;6.30;;
25107;SDS011;13090;53.422;7.670;2023-02-10T03:16:26;19.35;;;6.65;;
25107;SDS011;13090;53.422;7.670;2023-02-10T03:21:31;22.98;;;5.88;;
25107;SDS011;13090;53.422;7.670;2023-02-10T03:26:34;17.20;;;6.28;;
25107;SDS011;13090;53.422;7.670;2023-02-10T03:31:40;12.77;;;5.95;;
25107;SDS011;13090;53.422;7.670;2023-02-10T03:36:47;15.27;;;6.00;;
25107;SDS011;13090;53.422;7.670;2023-02-10T03:41:50;18.25;;;5.72;;
25107;SDS011;13090;53.422;7.670;2023-02-10T03:46:53;20.48;;;7.00;;
25107;SDS011;13090;53.422;7.670;2023-02-10T03:52:00;15.43;;;5.45;;
25107;SDS011;13090;53.422;7.670;2023-02-10T03:57:05;17.67;;;5.95;;
25107;SDS011;13090;53.422;7.670;2023-02-10T04:02:12;14.20;;;5.45;;
25107;SDS011;13090;53.422;7.670;2023-02-10T04:07:19;15.75;;;5.57;;
25107;SDS011;13090;53.422;7.670;2023-02-10T04:12:24;20.33;;;5.75;;
25107;SDS011;13090;53.422;7.670;2023-02-10T04:17:26;15.40;;;5.45;;
25107;SDS011;13090;53.422;7.670;2023-02-10T04:22:36;22.05;;;5.65;;
25107;SDS011;13090;53.422;7.670;2023-02-10T04:32:45;14.25;;;5.60;;
25107;SDS011;13090;53.422;7.670;2023-02-10T04:37:50;17.30;;;6.53;;
25107;SDS011;13090;53.422;7.670;2023-02-10T04:42:53;14.40;;;5.65;;
25107;SDS011;13090;53.422;7.670;2023-02-10T04:47:58;17.95;;;5.95;;
25107;SDS011;13090;53.422;7.670;2023-02-10T04:53:05;18.95;;;5.95;;
25107;SDS011;13090;53.422;7.670;2023-02-10T04:58:08;14.93;;;5.55;;
25107;SDS011;13090;53.422;7.670;2023-02-10T05:03:10;16.45;;;5.90;;
25107;SDS011;13090;53.422;7.670;2023-02-10T05:08:14;15.02;;;5.75;;
25107;SDS011;13090;53.422;7.670;2023-02-10T05:13:16;15.45;;;5.78;;
25107;SDS011;13090;53.422;7.670;2023-02-10T05:18:19;13.48;;;5.43;;
25107;SDS011;13090;53.422;7.670;2023-02-10T05:23:22;12.43;;;5.53;;
25107;SDS011;13090;53.422;7.670;2023-02-10T05:28:24;16.10;;;6.40;;
25107;SDS011;13090;53.422;7.670;2023-02-10T05:33:27;18.08;;;5.72;;
25107;SDS011;13090;53.422;7.670;2023-02-10T05:38:31;17.75;;;6.53;;
25107;SDS011;13090;53.422;7.670;2023-02-10T05:43:33;15.35;;;5.70;;
25107;SDS011;13090;53.422;7.670;2023-02-10T05:48:35;16.55;;;6.07;;
25107;SDS011;13090;53.422;7.670;2023-02-10T05:53:39;22.75;;;5.57;;
25107;SDS011;13090;53.422;7.670;2023-02-10T05:58:41;15.43;;;5.78;;
25107;SDS011;13090;53.422;7.670;2023-02-10T06:03:43;17.13;;;5.63;;
25107;SDS011;13090;53.422;7.670;2023-02-10T06:08:47;19.25;;;6.97;;
25107;SDS011;13090;53.422;7.670;2023-02-10T06:13:49;14.57;;;6.18;;
25107;SDS011;13090;53.422;7.670;2023-02-10T06:18:52;18.77;;;6.32;;
25107;SDS011;13090;53.422;7.670;2023-02-10T06:23:56;20.17;;;6.00;;
25107;SDS011;13090;53.422;7.670;2023-02-10T06:28:58;16.63;;;6.25;;
25107;SDS011;13090;53.422;7.670;2023-02-10T06:34:00;14.05;;;6.07;;
25107;SDS011;13090;53.422;7.670;2023-02-10T06:39:04;23.35;;;6.60;;
25107;SDS011;13090;53.422;7.670;2023-02-10T06:44:07;23.83;;;6.72;;
25107;SDS011;13090;53.422;7.670;2023-02-10T06:49:09;16.63;;;6.43;;
25107;SDS011;13090;53.422;7.670;2023-02-10T06:54:13;22.63;;;7.43;;
25107;SDS011;13090;53.422;7.670;2023-02-10T06:59:15;22.60;;;7.90;;
25107;SDS011;13090;53.422;7.670;2023-02-10T07:04:18;17.65;;;7.50;;
25107;SDS011;13090;53.422;7.670;2023-02-10T07:09:21;22.13;;;7.63;;
25107;SDS011;13090;53.422;7.670;2023-02-10T07:14:24;20.20;;;7.68;;
25107;SDS011;13090;53.422;7.670;2023-02-10T07:19:27;18.90;;;7.25;;
25107;SDS011;13090;53.422;7.670;2023-02-10T07:24:31;22.75;;;7.60;;
25107;SDS011;13090;53.422;7.670;2023-02-10T07:29:33;18.48;;;6.88;;
25107;SDS011;13090;53.422;7.670;2023-02-10T07:34:35;16.10;;;7.30;;
25107;SDS011;13090;53.422;7.670;2023-02-10T07:39:39;19.85;;;7.50;;
25107;SDS011;13090;53.422;7.670;2023-02-10T07:44:42;19.98;;;7.22;;
25107;SDS011;13090;53.422;7.670;2023-02-10T07:49:44;19.65;;;6.80;;
25107;SDS011;13090;53.422;7.670;2023-02-10T07:54:48;18.85;;;7.28;;
25107;SDS011;13090;53.422;7.670;2023-02-10T07:59:51;15.57;;;6.72;;
25107;SDS011;13090;53.422;7.670;2023-02-10T08:04:53;15.30;;;6.53;;
25107;SDS011;13090;53.422;7.670;2023-02-10T08:09:57;16.52;;;6.65;;
25107;SDS011;13090;53.422;7.670;2023-02-10T08:14:59;13.57;;;6.70;;
25107;SDS011;13090;53.422;7.670;2023-02-10T08:20:02;14.82;;;6.88;;
25107;SDS011;13090;53.422;7.670;2023-02-10T08:25:07;14.57;;;6.50;;
25107;SDS011;13090;53.422;7.670;2023-02-10T08:30:09;16.77;;;7.13;;
25107;SDS011;13090;53.422;7.670;2023-02-10T08:35:12;22.70;;;9.35;;
25107;SDS011;13090;53.422;7.670;2023-02-10T08:40:16;12.55;;;6.25;;
25107;SDS011;13090;53.422;7.670;2023-02-10T08:45:19;15.85;;;6.57;;
25107;SDS011;13090;53.422;7.670;2023-02-10T08:50:21;15.07;;;6.07;;
25107;SDS011;13090;53.422;7.670;2023-02-10T08:55:25;11.80;;;5.97;;
25107;SDS011;13090;53.422;7.670;2023-02-10T09:00:28;13.20;;;5.30;;
25107;SDS011;13090;53.422;7.670;2023-02-10T09:05:30;12.95;;;5.43;;
25107;SDS011;13090;53.422;7.670;2023-02-10T09:15:41;12.82;;;5.82;;
25107;SDS011;13090;53.422;7.670;2023-02-10T09:20:44;12.52;;;5.68;;
25107;SDS011;13090;53.422;7.670;2023-02-10T09:25:53;19.95;;;6.55;;
25107;SDS011;13090;53.422;7.670;2023-02-10T09:30:56;22.65;;;6.78;;
25107;SDS011;13090;53.422;7.670;2023-02-10T09:36:01;20.58;;;6.85;;
25107;SDS011;13090;53.422;7.670;2023-02-10T09:41:08;15.57;;;6.72;;
25107;SDS011;13090;53.422;7.670;2023-02-10T09:46:24;14.93;;;6.75;;
25107;SDS011;13090;53.422;7.670;2023-02-10T09:51:38;13.27;;;6.32;;
25107;SDS011;13090;53.422;7.670;2023-02-10T09:56:50;11.88;;;5.72;;
25107;SDS011;13090;53.422;7.670;2023-02-10T10:01:54;17.00;;;6.03;;
25107;SDS011;13090;53.422;7.670;2023-02-10T10:07:03;13.07;;;5.50;;
25107;SDS011;13090;53.422;7.670;2023-02-10T10:12:17;11.30;;;4.70;;
25107;SDS011;13090;53.422;7.670;2023-02-10T10:22:50;14.68;;;5.05;;
25107;SDS011;13090;53.422;7.670;2023-02-10T10:28:02;13.13;;;5.35;;
25107;SDS011;13090;53.422;7.670;2023-02-10T10:33:19;14.30;;;5.57;;
25107;SDS011;13090;53.422;7.670;2023-02-10T10:38:24;12.60;;;5.10;;
25107;SDS011;13090;53.422;7.670;2023-02-10T10:43:32;10.05;;;4.88;;
25107;SDS011;13090;53.422;7.670;2023-02-10T10:48:41;18.30;;;5.18;;
25107;SDS011;13090;53.422;7.670;2023-02-10T10:53:46;10.38;;;5.22;;
25107;SDS011;13090;53.422;7.670;2023-02-10T10:58:51;19.60;;;5.30;;
25107;SDS011;13090;53.422;7.670;2023-02-10T11:04:02;15.63;;;5.18;;
25107;SDS011;13090;53.422;7.670;2023-02-10T11:09:13;13.35;;;5.53;;
25107;SDS011;13090;53.422;7.670;2023-02-10T11:14:37;11.90;;;5.55;;
25107;SDS011;13090;53.422;7.670;2023-02-10T11:19:41;15.02;;;6.00;;
25107;SDS011;13090;53.422;7.670;2023-02-10T11:24:54;14.00;;;5.85;;
25107;SDS011;13090;53.422;7.670;2023-02-10T11:35:25;19.02;;;6.30;;
25107;SDS011;13090;53.422;7.670;2023-02-10T11:40:29;16.92;;;6.35;;
25107;SDS011;13090;53.422;7.670;2023-02-10T11:46:04;12.63;;;5.88;;
25107;SDS011;13090;53.422;7.670;2023-02-10T11:51:13;13.48;;;5.85;;
25107;SDS011;13090;53.422;7.670;2023-02-10T11:56:18;18.45;;;6.68;;
25107;SDS011;13090;53.422;7.670;2023-02-10T12:06:55;14.85;;;7.07;;
25107;SDS011;13090;53.422;7.670;2023-02-10T12:12:04;14.13;;;6.32;;
25107;SDS011;13090;53.422;7.670;2023-02-10T12:17:26;14.55;;;6.03;;
25107;SDS011;13090;53.422;7.670;2023-02-10T12:22:33;17.63;;;7.07;;
25107;SDS011;13090;53.422;7.670;2023-02-10T12:27:47;17.05;;;6.78;;
25107;SDS011;13090;53.422;7.670;2023-02-10T12:33:16;17.02;;;6.85;;
25107;SDS011;13090;53.422;7.670;2023-02-10T12:38:38;15.05;;;6.53;;
25107;SDS011;13090;53.422;7.670;2023-02-10T12:43:58;12.80;;;6.32;;
25107;SDS011;13090;53.422;7.670;2023-02-10T12:49:14;27.50;;;16.17;;
25107;SDS011;13090;53.422;7.670;2023-02-10T12:54:41;21.23;;;12.15;;
25107;SDS011;13090;53.422;7.670;2023-02-10T13:00:02;14.25;;;7.57;;
25107;SDS011;13090;53.422;7.670;2023-02-10T13:05:30;16.67;;;6.32;;
25107;SDS011;13090;53.422;7.670;2023-02-10T13:10:38;13.85;;;6.15;;
25107;SDS011;13090;53.422;7.670;2023-02-10T13:15:49;39.95;;;22.40;;
25107;SDS011;13090;53.422;7.670;2023-02-10T13:21:08;14.85;;;8.18;;
25107;SDS011;13090;53.422;7.670;2023-02-10T13:26:22;12.65;;;5.82;;
25107;SDS011;13090;53.422;7.670;2023-02-10T13:37:12;11.65;;;6.05;;
25107;SDS011;13090;53.422;7.670;2023-02-10T13:42:22;12.65;;;5.65;;
25107;SDS011;13090;53.422;7.670;2023-02-10T13:47:35;43.65;;;23.77;;
25107;SDS011;13090;53.422;7.670;2023-02-10T13:52:49;38.38;;;23.35;;
25107;SDS011;13090;53.422;7.670;2023-02-10T13:57:56;21.58;;;9.70;;
25107;SDS011;13090;53.422;7.670;2023-02-10T14:03:22;21.17;;;9.27;;
25107;SDS011;13090;53.422;7.670;2023-02-10T14:08:42;20.02;;;9.68;;
25107;SDS011;13090;53.422;7.670;2023-02-10T14:14:16;12.68;;;7.03;;
25107;SDS011;13090;53.422;7.670;2023-02-10T14:19:22;18.35;;;7.57;;
25107;SDS011;13090;53.422;7.670;2023-02-10T14:24:35;11.25;;;4.65;;
25107;SDS011;13090;53.422;7.670;2023-02-10T14:29:52;10.82;;;4.10;;
25107;SDS011;13090;53.422;7.670;2023-02-10T14:34:59;10.85;;;3.78;;
25107;SDS011;13090;53.422;7.670;2023-02-10T14:40:34;12.68;;;3.58;;
25107;SDS011;13090;53.422;7.670;2023-02-10T14:45:45;9.32;;;3.00;;
25107;SDS011;13090;53.422;7.670;2023-02-10T14:50:59;11.50;;;3.13;;
25107;SDS011;13090;53.422;7.670;2023-02-10T14:56:36;8.90;;;2.72;;
25107;SDS011;13090;53.422;7.670;2023-02-10T15:01:55;8.02;;;2.55;;
25107;SDS011;13090;53.422;7.670;2023-02-10T15:07:34;9.15;;;2.53;;
25107;SDS011;13090;53.422;7.670;2023-02-10T15:12:59;15.00;;;2.72;;
25107;SDS011;13090;53.422;7.670;2023-02-10T15:18:25;9.98;;;2.97;;
25107;SDS011;13090;53.422;7.670;2023-02-10T15:23:45;17.90;;;3.55;;
25107;SDS011;13090;53.422;7.670;2023-02-10T15:28:58;13.13;;;3.22;;
25107;SDS011;13090;53.422;7.670;2023-02-10T15:34:13;9.38;;;3.28;;
25107;SDS011;13090;53.422;7.670;2023-02-10T15:39:22;8.90;;;3.67;;
25107;SDS011;13090;53.422;7.670;2023-02-10T15:44:58;18.38;;;4.55;;
25107;SDS011;13090;53.422;7.670;2023-02-10T15:50:02;15.90;;;4.53;;
25107;SDS011;13090;53.422;7.670;2023-02-10T15:55:24;16.60;;;4.43;;
25107;SDS011;13090;53.422;7.670;2023-02-10T16:06:11;11.65;;;4.22;;
25107;SDS011;13090;53.422;7.670;2023-02-10T16:11:19;13.30;;;5.10;;
25107;SDS011;13090;53.422;7.670;2023-02-10T16:16:26;15.02;;;4.78;;
25107;SDS011;13090;53.422;7.670;2023-02-10T16:21:36;16.33;;;4.97;;
25107;SDS011;13090;53.422;7.670;2023-02-10T16:26:52;16.98;;;4.82;;
25107;SDS011;13090;53.422;7.670;2023-02-10T16:32:13;15.65;;;5.20;;
25107;SDS011;13090;53.422;7.670;2023-02-10T16:37:23;13.85;;;4.63;;
25107;SDS011;13090;53.422;7.670;2023-02-10T16:42:38;17.73;;;5.45;;
25107;SDS011;13090;53.422;7.670;2023-02-10T16:48:09;17.13;;;5.53;;
25107;SDS011;13090;53.422;7.670;2023-02-10T16:53:17;15.82;;;5.45;;
25107;SDS011;13090;53.422;7.670;2023-02-10T16:58:20;14.18;;;5.45;;
25107;SDS011;13090;53.422;7.670;2023-02-10T17:03:43;16.80;;;5.30;;
25107;SDS011;13090;53.422;7.670;2023-02-10T17:08:52;14.77;;;5.78;;
25107;SDS011;13090;53.422;7.670;2023-02-10T17:19:28;17.00;;;5.47;;
25107;SDS011;13090;53.422;7.670;2023-02-10T17:30:11;19.83;;;6.40;;
25107;SDS011;13090;53.422;7.670;2023-02-10T17:35:24;21.17;;;6.25;;
25107;SDS011;13090;53.422;7.670;2023-02-10T17:40:30;17.38;;;6.78;;
25107;SDS011;13090;53.422;7.670;2023-02-10T17:45:45;21.25;;;6.82;;
25107;SDS011;13090;53.422;7.670;2023-02-10T17:51:50;15.57;;;6.03;;
25107;SDS011;13090;53.422;7.670;2023-02-10T17:56:53;18.08;;;6.95;;
25107;SDS011;13090;53.422;7.670;2023-02-10T18:02:11;14.77;;;6.00;;
25107;SDS011;13090;53.422;7.670;2023-02-10T18:07:16;22.13;;;6.50;;
25107;SDS011;13090;53.422;7.670;2023-02-10T18:12:18;15.38;;;5.93;;
25107;SDS011;13090;53.422;7.670;2023-02-10T18:17:21;19.17;;;7.47;;
25107;SDS011;13090;53.422;7.670;2023-02-10T18:28:14;17.60;;;6.55;;
25107;SDS011;13090;53.422;7.670;2023-02-10T18:38:39;13.23;;;6.40;;
25107;SDS011;13090;53.422;7.670;2023-02-10T18:43:43;10.88;;;5.63;;
25107;SDS011;13090;53.422;7.670;2023-02-10T18:48:55;13.25;;;7.18;;
25107;SDS011;13090;53.422;7.670;2023-02-10T19:05:40;20.90;;;7.07;;
25107;SDS011;13090;53.422;7.670;2023-02-10T19:10:43;16.10;;;8.65;;
25107;SDS011;13090;53.422;7.670;2023-02-10T19:15:48;20.83;;;8.65;;
25107;SDS011;13090;53.422;7.670;2023-02-10T19:20:51;17.48;;;8.43;;
25107;SDS011;13090;53.422;7.670;2023-02-10T19:25:57;20.60;;;8.95;;
25107;SDS011;13090;53.422;7.670;2023-02-10T19:31:07;18.23;;;9.18;;
25107;SDS011;13090;53.422;7.670;2023-02-10T19:36:12;21.35;;;8.55;;
25107;SDS011;13090;53.422;7.670;2023-02-10T19:41:15;15.48;;;9.10;;
25107;SDS011;13090;53.422;7.670;2023-02-10T19:46:26;20.88;;;9.60;;
25107;SDS011;13090;53.422;7.670;2023-02-10T19:51:35;21.48;;;8.88;;
25107;SDS011;13090;53.422;7.670;2023-02-10T19:56:46;18.92;;;9.40;;
25107;SDS011;13090;53.422;7.670;2023-02-10T20:02:07;23.25;;;11.40;;
25107;SDS011;13090;53.422;7.670;2023-02-10T20:07:15;19.40;;;9.88;;
25107;SDS011;13090;53.422;7.670;2023-02-10T20:12:21;22.85;;;9.32;;
25107;SDS011;13090;53.422;7.670;2023-02-10T20:17:34;21.48;;;10.25;;
25107;SDS011;13090;53.422;7.670;2023-02-10T20:22:46;19.48;;;9.20;;
25107;SDS011;13090;53.422;7.670;2023-02-10T20:27:54;24.88;;;10.85;;
25107;SDS011;13090;53.422;7.670;2023-02-10T20:38:46;19.70;;;10.13;;
25107;SDS011;13090;53.422;7.670;2023-02-10T20:43:52;23.20;;;10.52;;
25107;SDS011;13090;53.422;7.670;2023-02-10T20:48:55;20.27;;;10.15;;
25107;SDS011;13090;53.422;7.670;2023-02-10T20:53:59;24.08;;;9.95;;
25107;SDS011;13090;53.422;7.670;2023-02-10T20:59:14;25.30;;;10.57;;
25107;SDS011;13090;53.422;7.670;2023-02-10T21:04:23;25.88;;;10.27;;
25107;SDS011;13090;53.422;7.670;2023-02-10T21:09:27;18.20;;;9.23;;
25107;SDS011;13090;53.422;7.670;2023-02-10T21:14:29;21.30;;;9.25;;
25107;SDS011;13090;53.422;7.670;2023-02-10T21:19:34;21.02;;;9.35;;
25107;SDS011;13090;53.422;7.670;2023-02-10T21:24:38;22.10;;;8.27;;
25107;SDS011;13090;53.422;7.670;2023-02-10T21:29:41;12.98;;;7.35;;
25107;SDS011;13090;53.422;7.670;2023-02-10T21:34:43;19.77;;;8.52;;
25107;SDS011;13090;53.422;7.670;2023-02-10T21:39:47;20.38;;;7.30;;
25107;SDS011;13090;53.422;7.670;2023-02-10T21:44:50;22.90;;;8.02;;
25107;SDS011;13090;53.422;7.670;2023-02-10T21:49:52;20.77;;;7.22;;
25107;SDS011;13090;53.422;7.670;2023-02-10T21:54:56;14.23;;;5.90;;
25107;SDS011;13090;53.422;7.670;2023-02-10T21:59:59;18.05;;;6.45;;
25107;SDS011;13090;53.422;7.670;2023-02-10T22:05:01;17.92;;;6.53;;
25107;SDS011;13090;53.422;7.670;2023-02-10T22:10:06;20.30;;;6.60;;
25107;SDS011;13090;53.422;7.670;2023-02-10T22:15:09;17.88;;;6.68;;
25107;SDS011;13090;53.422;7.670;2023-02-10T22:20:12;23.40;;;7.22;;
25107;SDS011;13090;53.422;7.670;2023-02-10T22:25:16;28.58;;;7.22;;
25107;SDS011;13090;53.422;7.670;2023-02-10T22:30:18;24.90;;;7.38;;
25107;SDS011;13090;53.422;7.670;2023-02-10T22:35:20;20.55;;;6.15;;
25107;SDS011;13090;53.422;7.670;2023-02-10T22:40:24;19.70;;;6.63;;
25107;SDS011;13090;53.422;7.670;2023-02-10T22:45:27;24.75;;;7.07;;
25107;SDS011;13090;53.422;7.670;2023-02-10T22:50:29;20.88;;;6.68;;
25107;SDS011;13090;53.422;7.670;2023-02-10T22:55:33;16.40;;;7.35;;
25107;SDS011;13090;53.422;7.670;2023-02-10T23:00:36;21.20;;;6.95;;
25107;SDS011;13090;53.422;7.670;2023-02-10T23:05:38;19.95;;;6.97;;
25107;SDS011;13090;53.422;7.670;2023-02-10T23:10:42;21.40;;;6.95;;
25107;SDS011;13090;53.422;7.670;2023-02-10T23:15:45;19.63;;;6.82;;
25107;SDS011;13090;53.422;7.670;2023-02-10T23:25:56;25.67;;;7.80;;
25107;SDS011;13090;53.422;7.670;2023-02-10T23:30:59;21.42;;;7.85;;
25107;SDS011;13090;53.422;7.670;2023-02-10T23:36:02;21.38;;;7.25;;
25107;SDS011;13090;53.422;7.670;2023-02-10T23:41:07;22.35;;;7.63;;
25107;SDS011;13090;53.422;7.670;2023-02-10T23:46:10;21.35;;;6.70;;
25107;SDS011;13090;53.422;7.670;2023-02-10T23:51:13;19.52;;;7.72;;
25107;SDS011;13090;53.422;7.670;2023-02-10T23:56:20;24.23;;;7.25;;
